sensor_id;sensor_type;location;lat;lon;timestamp;P1;durP1;ratioP1;P2;durP2;ratioP2
9214;SDS011;4642;51.364;6.788;2022-11-22T00:02:04;7.87;;;1.67;;
9214;SDS011;4642;51.364;6.788;2022-11-22T00:04:30;3.20;;;1.40;;
9214;SDS011;4642;51.364;6.788;2022-11-22T00:06:55;10.60;;;1.60;;
9214;SDS011;4642;51.364;6.788;2022-11-22T00:09:21;3.73;;;1.50;;
9214;SDS011;4642;51.364;6.788;2022-11-22T00:11:46;3.97;;;1.50;;
9214;SDS011;4642;51.364;6.788;2022-11-22T00:14:12;4.07;;;1.40;;
9214;SDS011;4642;51.364;6.788;2022-11-22T00:16:37;6.17;;;1.57;;
9214;SDS011;4642;51.364;6.788;2022-11-22T00:19:03;3.67;;;1.47;;
9214;SDS011;4642;51.364;6.788;2022-11-22T00:21:28;4.40;;;1.37;;
9214;SDS011;4642;51.364;6.788;2022-11-22T00:23:57;2.97;;;1.20;;
9214;SDS011;4642;51.364;6.788;2022-11-22T00:26:23;3.10;;;1.40;;
9214;SDS011;4642;51.364;6.788;2022-11-22T00:28:49;7.33;;;1.80;;
9214;SDS011;4642;51.364;6.788;2022-11-22T00:31:15;6.93;;;1.70;;
9214;SDS011;4642;51.364;6.788;2022-11-22T00:33:40;4.33;;;1.33;;
9214;SDS011;4642;51.364;6.788;2022-11-22T00:36:06;3.77;;;1.27;;
9214;SDS011;4642;51.364;6.788;2022-11-22T00:38:31;3.73;;;1.33;;
9214;SDS011;4642;51.364;6.788;2022-11-22T00:40:57;2.37;;;1.30;;
9214;SDS011;4642;51.364;6.788;2022-11-22T00:43:24;4.87;;;1.60;;
9214;SDS011;4642;51.364;6.788;2022-11-22T00:45:50;3.20;;;1.37;;
9214;SDS011;4642;51.364;6.788;2022-11-22T00:48:16;3.17;;;1.60;;
9214;SDS011;4642;51.364;6.788;2022-11-22T00:50:41;4.53;;;1.70;;
9214;SDS011;4642;51.364;6.788;2022-11-22T00:53:07;5.87;;;1.93;;
9214;SDS011;4642;51.364;6.788;2022-11-22T00:55:32;3.47;;;1.50;;
9214;SDS011;4642;51.364;6.788;2022-11-22T00:57:58;4.83;;;1.50;;
9214;SDS011;4642;51.364;6.788;2022-11-22T01:00:24;3.50;;;1.53;;
9214;SDS011;4642;51.364;6.788;2022-11-22T01:02:49;3.97;;;1.10;;
9214;SDS011;4642;51.364;6.788;2022-11-22T01:05:15;2.97;;;1.63;;
9214;SDS011;4642;51.364;6.788;2022-11-22T01:07:42;5.00;;;1.40;;
9214;SDS011;4642;51.364;6.788;2022-11-22T01:10:08;3.80;;;1.53;;
9214;SDS011;4642;51.364;6.788;2022-11-22T01:12:34;4.23;;;1.60;;
9214;SDS011;4642;51.364;6.788;2022-11-22T01:14:59;3.20;;;1.53;;
9214;SDS011;4642;51.364;6.788;2022-11-22T01:17:25;6.53;;;1.83;;
9214;SDS011;4642;51.364;6.788;2022-11-22T01:19:51;4.67;;;1.70;;
9214;SDS011;4642;51.364;6.788;2022-11-22T01:22:17;7.40;;;1.90;;
9214;SDS011;4642;51.364;6.788;2022-11-22T01:24:42;2.80;;;1.33;;
9214;SDS011;4642;51.364;6.788;2022-11-22T01:27:08;3.53;;;1.53;;
9214;SDS011;4642;51.364;6.788;2022-11-22T01:29:33;3.47;;;1.87;;
9214;SDS011;4642;51.364;6.788;2022-11-22T01:31:59;3.93;;;1.70;;
9214;SDS011;4642;51.364;6.788;2022-11-22T01:34:24;6.73;;;1.63;;
9214;SDS011;4642;51.364;6.788;2022-11-22T01:36:50;6.20;;;1.60;;
9214;SDS011;4642;51.364;6.788;2022-11-22T01:39:16;4.87;;;2.10;;
9214;SDS011;4642;51.364;6.788;2022-11-22T01:41:41;5.33;;;1.90;;
9214;SDS011;4642;51.364;6.788;2022-11-22T01:44:20;4.27;;;1.80;;
9214;SDS011;4642;51.364;6.788;2022-11-22T01:46:52;7.90;;;2.43;;
9214;SDS011;4642;51.364;6.788;2022-11-22T01:49:34;4.17;;;1.70;;
9214;SDS011;4642;51.364;6.788;2022-11-22T01:52:08;3.30;;;1.63;;
9214;SDS011;4642;51.364;6.788;2022-11-22T01:54:46;4.60;;;1.83;;
9214;SDS011;4642;51.364;6.788;2022-11-22T01:57:15;7.03;;;2.13;;
9214;SDS011;4642;51.364;6.788;2022-11-22T01:59:45;5.37;;;2.10;;
9214;SDS011;4642;51.364;6.788;2022-11-22T02:02:16;8.27;;;2.37;;
9214;SDS011;4642;51.364;6.788;2022-11-22T02:04:42;7.57;;;2.90;;
9214;SDS011;4642;51.364;6.788;2022-11-22T02:07:13;4.10;;;1.83;;
9214;SDS011;4642;51.364;6.788;2022-11-22T02:09:45;5.10;;;2.00;;
9214;SDS011;4642;51.364;6.788;2022-11-22T02:12:15;5.10;;;2.00;;
9214;SDS011;4642;51.364;6.788;2022-11-22T02:14:42;4.93;;;2.03;;
9214;SDS011;4642;51.364;6.788;2022-11-22T02:17:08;5.60;;;1.87;;
9214;SDS011;4642;51.364;6.788;2022-11-22T02:19:38;9.00;;;2.20;;
9214;SDS011;4642;51.364;6.788;2022-11-22T02:22:11;5.53;;;1.80;;
9214;SDS011;4642;51.364;6.788;2022-11-22T02:24:51;3.00;;;1.90;;
9214;SDS011;4642;51.364;6.788;2022-11-22T02:27:23;3.97;;;1.60;;
9214;SDS011;4642;51.364;6.788;2022-11-22T02:29:49;6.93;;;2.43;;
9214;SDS011;4642;51.364;6.788;2022-11-22T02:32:15;5.30;;;1.80;;
9214;SDS011;4642;51.364;6.788;2022-11-22T02:34:41;5.13;;;1.87;;
9214;SDS011;4642;51.364;6.788;2022-11-22T02:37:11;7.00;;;2.20;;
9214;SDS011;4642;51.364;6.788;2022-11-22T02:39:46;5.87;;;1.90;;
9214;SDS011;4642;51.364;6.788;2022-11-22T02:42:15;6.60;;;2.07;;
9214;SDS011;4642;51.364;6.788;2022-11-22T02:44:40;5.97;;;1.80;;
9214;SDS011;4642;51.364;6.788;2022-11-22T02:47:06;3.20;;;1.70;;
9214;SDS011;4642;51.364;6.788;2022-11-22T02:49:32;2.77;;;2.10;;
9214;SDS011;4642;51.364;6.788;2022-11-22T02:51:57;3.83;;;1.60;;
9214;SDS011;4642;51.364;6.788;2022-11-22T02:54:23;4.97;;;2.10;;
9214;SDS011;4642;51.364;6.788;2022-11-22T02:56:48;4.57;;;1.90;;
9214;SDS011;4642;51.364;6.788;2022-11-22T02:59:14;5.93;;;1.90;;
9214;SDS011;4642;51.364;6.788;2022-11-22T03:01:40;6.30;;;2.00;;
9214;SDS011;4642;51.364;6.788;2022-11-22T03:04:06;5.23;;;2.00;;
9214;SDS011;4642;51.364;6.788;2022-11-22T03:06:32;6.17;;;1.83;;
9214;SDS011;4642;51.364;6.788;2022-11-22T03:08:57;8.03;;;2.07;;
9214;SDS011;4642;51.364;6.788;2022-11-22T03:11:23;4.87;;;1.87;;
9214;SDS011;4642;51.364;6.788;2022-11-22T03:13:49;6.97;;;2.13;;
9214;SDS011;4642;51.364;6.788;2022-11-22T03:16:14;7.13;;;1.80;;
9214;SDS011;4642;51.364;6.788;2022-11-22T03:18:40;6.37;;;1.87;;
9214;SDS011;4642;51.364;6.788;2022-11-22T03:21:06;3.37;;;1.50;;
9214;SDS011;4642;51.364;6.788;2022-11-22T03:23:33;6.27;;;1.70;;
9214;SDS011;4642;51.364;6.788;2022-11-22T03:26:05;8.47;;;1.90;;
9214;SDS011;4642;51.364;6.788;2022-11-22T03:28:32;5.27;;;2.20;;
9214;SDS011;4642;51.364;6.788;2022-11-22T03:30:58;5.13;;;1.63;;
9214;SDS011;4642;51.364;6.788;2022-11-22T03:33:24;5.90;;;1.50;;
9214;SDS011;4642;51.364;6.788;2022-11-22T03:35:49;4.17;;;1.83;;
9214;SDS011;4642;51.364;6.788;2022-11-22T03:38:18;5.67;;;1.67;;
9214;SDS011;4642;51.364;6.788;2022-11-22T03:40:47;5.87;;;1.53;;
9214;SDS011;4642;51.364;6.788;2022-11-22T03:43:12;5.83;;;2.00;;
9214;SDS011;4642;51.364;6.788;2022-11-22T03:45:42;7.77;;;1.60;;
9214;SDS011;4642;51.364;6.788;2022-11-22T03:48:12;4.73;;;1.73;;
9214;SDS011;4642;51.364;6.788;2022-11-22T03:50:38;5.33;;;1.67;;
9214;SDS011;4642;51.364;6.788;2022-11-22T03:53:04;4.50;;;2.07;;
9214;SDS011;4642;51.364;6.788;2022-11-22T03:55:30;3.17;;;1.80;;
9214;SDS011;4642;51.364;6.788;2022-11-22T03:57:55;5.50;;;1.40;;
9214;SDS011;4642;51.364;6.788;2022-11-22T04:00:21;8.07;;;1.87;;
9214;SDS011;4642;51.364;6.788;2022-11-22T04:02:47;5.87;;;2.33;;
9214;SDS011;4642;51.364;6.788;2022-11-22T04:05:13;8.63;;;1.90;;
9214;SDS011;4642;51.364;6.788;2022-11-22T04:07:39;7.63;;;2.27;;
9214;SDS011;4642;51.364;6.788;2022-11-22T04:10:04;5.97;;;1.90;;
9214;SDS011;4642;51.364;6.788;2022-11-22T04:12:31;4.63;;;2.20;;
9214;SDS011;4642;51.364;6.788;2022-11-22T04:14:57;8.30;;;2.40;;
9214;SDS011;4642;51.364;6.788;2022-11-22T04:17:41;8.67;;;1.70;;
9214;SDS011;4642;51.364;6.788;2022-11-22T04:23:09;5.97;;;1.60;;
9214;SDS011;4642;51.364;6.788;2022-11-22T04:25:37;3.50;;;1.70;;
9214;SDS011;4642;51.364;6.788;2022-11-22T04:28:05;9.00;;;1.93;;
9214;SDS011;4642;51.364;6.788;2022-11-22T04:30:31;6.50;;;1.80;;
9214;SDS011;4642;51.364;6.788;2022-11-22T04:33:16;5.20;;;1.90;;
9214;SDS011;4642;51.364;6.788;2022-11-22T04:35:42;6.00;;;2.10;;
9214;SDS011;4642;51.364;6.788;2022-11-22T04:38:09;9.57;;;1.87;;
9214;SDS011;4642;51.364;6.788;2022-11-22T04:40:35;7.50;;;1.80;;
9214;SDS011;4642;51.364;6.788;2022-11-22T04:43:01;9.87;;;1.90;;
9214;SDS011;4642;51.364;6.788;2022-11-22T04:45:46;9.07;;;2.13;;
9214;SDS011;4642;51.364;6.788;2022-11-22T04:48:12;4.13;;;1.90;;
9214;SDS011;4642;51.364;6.788;2022-11-22T04:50:38;12.97;;;2.13;;
9214;SDS011;4642;51.364;6.788;2022-11-22T04:53:23;6.53;;;2.07;;
9214;SDS011;4642;51.364;6.788;2022-11-22T04:55:49;5.20;;;1.83;;
9214;SDS011;4642;51.364;6.788;2022-11-22T04:58:15;7.90;;;1.90;;
9214;SDS011;4642;51.364;6.788;2022-11-22T05:00:41;7.93;;;1.93;;
9214;SDS011;4642;51.364;6.788;2022-11-22T05:03:07;7.23;;;1.80;;
9214;SDS011;4642;51.364;6.788;2022-11-22T05:05:37;8.33;;;1.90;;
9214;SDS011;4642;51.364;6.788;2022-11-22T05:08:04;6.57;;;1.83;;
9214;SDS011;4642;51.364;6.788;2022-11-22T05:10:31;11.67;;;2.07;;
9214;SDS011;4642;51.364;6.788;2022-11-22T05:13:17;4.90;;;1.90;;
9214;SDS011;4642;51.364;6.788;2022-11-22T05:15:43;12.57;;;2.37;;
9214;SDS011;4642;51.364;6.788;2022-11-22T05:18:09;9.80;;;2.40;;
9214;SDS011;4642;51.364;6.788;2022-11-22T05:20:34;11.13;;;2.30;;
9214;SDS011;4642;51.364;6.788;2022-11-22T05:23:00;8.23;;;1.83;;
9214;SDS011;4642;51.364;6.788;2022-11-22T05:25:45;5.37;;;2.10;;
9214;SDS011;4642;51.364;6.788;2022-11-22T05:28:10;5.57;;;1.67;;
9214;SDS011;4642;51.364;6.788;2022-11-22T05:30:39;10.73;;;1.90;;
9214;SDS011;4642;51.364;6.788;2022-11-22T05:33:05;7.90;;;1.93;;
9214;SDS011;4642;51.364;6.788;2022-11-22T05:35:31;6.67;;;2.03;;
9214;SDS011;4642;51.364;6.788;2022-11-22T05:37:57;6.87;;;2.30;;
9214;SDS011;4642;51.364;6.788;2022-11-22T05:40:23;4.97;;;1.60;;
9214;SDS011;4642;51.364;6.788;2022-11-22T05:42:49;8.10;;;2.00;;
9214;SDS011;4642;51.364;6.788;2022-11-22T05:45:14;3.97;;;1.90;;
9214;SDS011;4642;51.364;6.788;2022-11-22T05:47:40;4.77;;;1.63;;
9214;SDS011;4642;51.364;6.788;2022-11-22T05:50:05;9.40;;;1.80;;
9214;SDS011;4642;51.364;6.788;2022-11-22T05:52:32;9.73;;;1.90;;
9214;SDS011;4642;51.364;6.788;2022-11-22T05:54:58;3.53;;;1.50;;
9214;SDS011;4642;51.364;6.788;2022-11-22T05:57:24;6.43;;;1.83;;
9214;SDS011;4642;51.364;6.788;2022-11-22T05:59:50;8.23;;;1.57;;
9214;SDS011;4642;51.364;6.788;2022-11-22T06:02:15;8.17;;;2.07;;
9214;SDS011;4642;51.364;6.788;2022-11-22T06:04:41;4.87;;;2.33;;
9214;SDS011;4642;51.364;6.788;2022-11-22T06:07:06;10.70;;;2.13;;
9214;SDS011;4642;51.364;6.788;2022-11-22T06:09:32;11.87;;;2.37;;
9214;SDS011;4642;51.364;6.788;2022-11-22T06:11:57;12.00;;;2.30;;
9214;SDS011;4642;51.364;6.788;2022-11-22T06:14:23;6.33;;;2.13;;
9214;SDS011;4642;51.364;6.788;2022-11-22T06:16:49;10.67;;;2.37;;
9214;SDS011;4642;51.364;6.788;2022-11-22T06:19:15;6.37;;;1.77;;
9214;SDS011;4642;51.364;6.788;2022-11-22T06:21:41;7.57;;;1.63;;
9214;SDS011;4642;51.364;6.788;2022-11-22T06:24:07;10.03;;;1.97;;
9214;SDS011;4642;51.364;6.788;2022-11-22T06:26:33;7.70;;;1.60;;
9214;SDS011;4642;51.364;6.788;2022-11-22T06:28:59;7.90;;;1.80;;
9214;SDS011;4642;51.364;6.788;2022-11-22T06:31:25;5.80;;;2.00;;
9214;SDS011;4642;51.364;6.788;2022-11-22T06:33:52;4.03;;;1.83;;
9214;SDS011;4642;51.364;6.788;2022-11-22T06:36:19;2.67;;;1.70;;
9214;SDS011;4642;51.364;6.788;2022-11-22T06:38:47;6.30;;;2.03;;
9214;SDS011;4642;51.364;6.788;2022-11-22T06:41:16;9.70;;;2.23;;
9214;SDS011;4642;51.364;6.788;2022-11-22T06:43:44;4.50;;;1.70;;
9214;SDS011;4642;51.364;6.788;2022-11-22T06:46:11;4.63;;;1.77;;
9214;SDS011;4642;51.364;6.788;2022-11-22T06:48:38;8.83;;;1.80;;
9214;SDS011;4642;51.364;6.788;2022-11-22T06:51:05;8.13;;;1.70;;
9214;SDS011;4642;51.364;6.788;2022-11-22T06:53:44;8.87;;;1.60;;
9214;SDS011;4642;51.364;6.788;2022-11-22T06:56:12;10.23;;;1.87;;
9214;SDS011;4642;51.364;6.788;2022-11-22T06:58:39;6.53;;;1.90;;
9214;SDS011;4642;51.364;6.788;2022-11-22T07:01:06;12.27;;;1.83;;
9214;SDS011;4642;51.364;6.788;2022-11-22T07:03:37;8.63;;;2.03;;
9214;SDS011;4642;51.364;6.788;2022-11-22T07:06:04;5.50;;;1.50;;
9214;SDS011;4642;51.364;6.788;2022-11-22T07:08:30;7.50;;;1.50;;
9214;SDS011;4642;51.364;6.788;2022-11-22T07:11:06;6.67;;;1.60;;
9214;SDS011;4642;51.364;6.788;2022-11-22T07:13:34;3.63;;;1.33;;
9214;SDS011;4642;51.364;6.788;2022-11-22T07:16:01;7.90;;;1.60;;
9214;SDS011;4642;51.364;6.788;2022-11-22T07:18:29;6.87;;;1.60;;
9214;SDS011;4642;51.364;6.788;2022-11-22T07:23:30;7.67;;;1.70;;
9214;SDS011;4642;51.364;6.788;2022-11-22T07:25:56;4.27;;;1.60;;
9214;SDS011;4642;51.364;6.788;2022-11-22T07:28:22;6.43;;;1.83;;
9214;SDS011;4642;51.364;6.788;2022-11-22T07:30:48;8.00;;;2.37;;
9214;SDS011;4642;51.364;6.788;2022-11-22T07:33:13;10.47;;;2.23;;
9214;SDS011;4642;51.364;6.788;2022-11-22T07:35:39;7.43;;;1.77;;
9214;SDS011;4642;51.364;6.788;2022-11-22T07:38:04;6.50;;;1.73;;
9214;SDS011;4642;51.364;6.788;2022-11-22T07:40:30;5.70;;;1.50;;
9214;SDS011;4642;51.364;6.788;2022-11-22T07:42:55;8.83;;;2.00;;
9214;SDS011;4642;51.364;6.788;2022-11-22T07:45:21;5.63;;;2.27;;
9214;SDS011;4642;51.364;6.788;2022-11-22T07:47:47;7.33;;;2.60;;
9214;SDS011;4642;51.364;6.788;2022-11-22T07:50:12;14.37;;;2.93;;
9214;SDS011;4642;51.364;6.788;2022-11-22T07:52:38;7.60;;;2.10;;
9214;SDS011;4642;51.364;6.788;2022-11-22T07:55:04;6.50;;;1.97;;
9214;SDS011;4642;51.364;6.788;2022-11-22T07:57:33;12.07;;;2.20;;
9214;SDS011;4642;51.364;6.788;2022-11-22T07:59:59;16.00;;;2.17;;
9214;SDS011;4642;51.364;6.788;2022-11-22T08:02:24;13.73;;;1.93;;
9214;SDS011;4642;51.364;6.788;2022-11-22T08:04:50;14.90;;;3.03;;
9214;SDS011;4642;51.364;6.788;2022-11-22T08:07:16;16.67;;;2.10;;
9214;SDS011;4642;51.364;6.788;2022-11-22T08:09:42;9.63;;;1.80;;
9214;SDS011;4642;51.364;6.788;2022-11-22T08:12:07;14.70;;;2.90;;
9214;SDS011;4642;51.364;6.788;2022-11-22T08:14:33;8.83;;;1.97;;
9214;SDS011;4642;51.364;6.788;2022-11-22T08:16:59;12.00;;;2.53;;
9214;SDS011;4642;51.364;6.788;2022-11-22T08:19:25;8.53;;;2.07;;
9214;SDS011;4642;51.364;6.788;2022-11-22T08:21:51;9.80;;;2.33;;
9214;SDS011;4642;51.364;6.788;2022-11-22T08:24:17;6.77;;;2.13;;
9214;SDS011;4642;51.364;6.788;2022-11-22T08:26:42;5.60;;;1.97;;
9214;SDS011;4642;51.364;6.788;2022-11-22T08:29:09;14.20;;;2.30;;
9214;SDS011;4642;51.364;6.788;2022-11-22T08:31:36;11.30;;;2.50;;
9214;SDS011;4642;51.364;6.788;2022-11-22T08:34:02;13.10;;;2.17;;
9214;SDS011;4642;51.364;6.788;2022-11-22T08:36:28;8.97;;;1.63;;
9214;SDS011;4642;51.364;6.788;2022-11-22T08:38:53;6.03;;;1.50;;
9214;SDS011;4642;51.364;6.788;2022-11-22T08:41:19;12.43;;;2.33;;
9214;SDS011;4642;51.364;6.788;2022-11-22T08:43:47;15.87;;;2.47;;
9214;SDS011;4642;51.364;6.788;2022-11-22T08:46:14;9.23;;;2.43;;
9214;SDS011;4642;51.364;6.788;2022-11-22T08:48:40;5.03;;;1.60;;
9214;SDS011;4642;51.364;6.788;2022-11-22T08:51:06;6.77;;;1.93;;
9214;SDS011;4642;51.364;6.788;2022-11-22T08:53:34;10.63;;;1.67;;
9214;SDS011;4642;51.364;6.788;2022-11-22T08:56:02;19.43;;;2.70;;
9214;SDS011;4642;51.364;6.788;2022-11-22T08:58:30;6.30;;;1.90;;
9214;SDS011;4642;51.364;6.788;2022-11-22T09:00:56;5.00;;;2.47;;
9214;SDS011;4642;51.364;6.788;2022-11-22T09:03:32;8.27;;;2.07;;
9214;SDS011;4642;51.364;6.788;2022-11-22T09:05:59;8.43;;;2.13;;
9214;SDS011;4642;51.364;6.788;2022-11-22T09:08:25;10.43;;;2.13;;
9214;SDS011;4642;51.364;6.788;2022-11-22T09:10:51;7.53;;;1.80;;
9214;SDS011;4642;51.364;6.788;2022-11-22T09:13:16;4.57;;;1.80;;
9214;SDS011;4642;51.364;6.788;2022-11-22T09:15:42;7.90;;;2.30;;
9214;SDS011;4642;51.364;6.788;2022-11-22T09:18:08;8.87;;;1.80;;
9214;SDS011;4642;51.364;6.788;2022-11-22T09:20:33;10.37;;;2.27;;
9214;SDS011;4642;51.364;6.788;2022-11-22T09:22:59;10.93;;;1.70;;
9214;SDS011;4642;51.364;6.788;2022-11-22T09:25:27;6.43;;;1.63;;
9214;SDS011;4642;51.364;6.788;2022-11-22T09:27:52;8.40;;;2.00;;
9214;SDS011;4642;51.364;6.788;2022-11-22T09:30:18;7.33;;;2.00;;
9214;SDS011;4642;51.364;6.788;2022-11-22T09:32:44;8.17;;;1.47;;
9214;SDS011;4642;51.364;6.788;2022-11-22T09:35:10;6.20;;;1.60;;
9214;SDS011;4642;51.364;6.788;2022-11-22T09:37:36;12.03;;;1.97;;
9214;SDS011;4642;51.364;6.788;2022-11-22T09:40:01;6.70;;;1.47;;
9214;SDS011;4642;51.364;6.788;2022-11-22T09:42:35;5.23;;;1.67;;
9214;SDS011;4642;51.364;6.788;2022-11-22T09:51:05;7.87;;;1.30;;
9214;SDS011;4642;51.364;6.788;2022-11-22T09:53:56;11.60;;;1.50;;
9214;SDS011;4642;51.364;6.788;2022-11-22T09:56:31;2.83;;;1.67;;
9214;SDS011;4642;51.364;6.788;2022-11-22T09:58:59;6.23;;;1.23;;
9214;SDS011;4642;51.364;6.788;2022-11-22T10:01:39;7.73;;;1.37;;
9214;SDS011;4642;51.364;6.788;2022-11-22T10:06:45;8.93;;;1.60;;
9214;SDS011;4642;51.364;6.788;2022-11-22T10:11:58;6.00;;;1.20;;
9214;SDS011;4642;51.364;6.788;2022-11-22T10:14:52;7.30;;;1.70;;
9214;SDS011;4642;51.364;6.788;2022-11-22T10:20:19;8.73;;;1.60;;
9214;SDS011;4642;51.364;6.788;2022-11-22T10:22:50;7.07;;;1.47;;
9214;SDS011;4642;51.364;6.788;2022-11-22T10:25:18;4.23;;;1.60;;
9214;SDS011;4642;51.364;6.788;2022-11-22T10:27:48;5.40;;;1.40;;
9214;SDS011;4642;51.364;6.788;2022-11-22T10:30:21;8.03;;;1.60;;
9214;SDS011;4642;51.364;6.788;2022-11-22T10:38:32;4.63;;;1.20;;
9214;SDS011;4642;51.364;6.788;2022-11-22T10:44:09;3.93;;;1.30;;
9214;SDS011;4642;51.364;6.788;2022-11-22T10:52:26;2.17;;;0.80;;
9214;SDS011;4642;51.364;6.788;2022-11-22T10:55:16;2.33;;;0.77;;
9214;SDS011;4642;51.364;6.788;2022-11-22T11:00:52;1.90;;;1.13;;
9214;SDS011;4642;51.364;6.788;2022-11-22T11:03:35;4.73;;;1.30;;
9214;SDS011;4642;51.364;6.788;2022-11-22T11:08:53;1.80;;;0.83;;
9214;SDS011;4642;51.364;6.788;2022-11-22T11:11:22;6.20;;;1.17;;
9214;SDS011;4642;51.364;6.788;2022-11-22T11:13:51;4.27;;;1.23;;
9214;SDS011;4642;51.364;6.788;2022-11-22T11:16:21;2.93;;;1.10;;
9214;SDS011;4642;51.364;6.788;2022-11-22T11:18:52;2.97;;;0.63;;
9214;SDS011;4642;51.364;6.788;2022-11-22T11:21:37;5.13;;;0.90;;
9214;SDS011;4642;51.364;6.788;2022-11-22T11:24:05;4.43;;;1.10;;
9214;SDS011;4642;51.364;6.788;2022-11-22T11:26:36;3.67;;;1.10;;
9214;SDS011;4642;51.364;6.788;2022-11-22T11:31:43;8.67;;;1.40;;
9214;SDS011;4642;51.364;6.788;2022-11-22T11:34:14;3.60;;;0.87;;
9214;SDS011;4642;51.364;6.788;2022-11-22T11:36:45;4.00;;;1.10;;
9214;SDS011;4642;51.364;6.788;2022-11-22T11:39:19;4.00;;;1.10;;
9214;SDS011;4642;51.364;6.788;2022-11-22T11:41:46;2.90;;;1.00;;
9214;SDS011;4642;51.364;6.788;2022-11-22T11:46:55;5.70;;;0.77;;
9214;SDS011;4642;51.364;6.788;2022-11-22T11:49:28;1.60;;;0.80;;
9214;SDS011;4642;51.364;6.788;2022-11-22T11:51:56;3.70;;;0.80;;
9214;SDS011;4642;51.364;6.788;2022-11-22T11:54:24;2.63;;;0.70;;
9214;SDS011;4642;51.364;6.788;2022-11-22T11:57:02;2.17;;;0.83;;
9214;SDS011;4642;51.364;6.788;2022-11-22T12:04:47;4.10;;;0.80;;
9214;SDS011;4642;51.364;6.788;2022-11-22T12:09:43;1.90;;;0.63;;
9214;SDS011;4642;51.364;6.788;2022-11-22T12:12:14;3.97;;;0.83;;
9214;SDS011;4642;51.364;6.788;2022-11-22T12:14:41;2.47;;;0.73;;
9214;SDS011;4642;51.364;6.788;2022-11-22T12:17:22;2.13;;;0.90;;
9214;SDS011;4642;51.364;6.788;2022-11-22T12:22:48;3.90;;;0.90;;
9214;SDS011;4642;51.364;6.788;2022-11-22T12:25:38;2.33;;;0.60;;
9214;SDS011;4642;51.364;6.788;2022-11-22T12:28:15;3.97;;;0.90;;
9214;SDS011;4642;51.364;6.788;2022-11-22T12:30:44;1.40;;;0.50;;
9214;SDS011;4642;51.364;6.788;2022-11-22T12:33:29;2.37;;;0.70;;
9214;SDS011;4642;51.364;6.788;2022-11-22T12:39:04;5.20;;;1.03;;
9214;SDS011;4642;51.364;6.788;2022-11-22T12:41:34;3.47;;;0.60;;
9214;SDS011;4642;51.364;6.788;2022-11-22T12:44:01;2.93;;;0.90;;
9214;SDS011;4642;51.364;6.788;2022-11-22T12:46:33;1.70;;;0.67;;
9214;SDS011;4642;51.364;6.788;2022-11-22T12:49:05;2.57;;;0.70;;
9214;SDS011;4642;51.364;6.788;2022-11-22T12:54:19;1.20;;;0.60;;
9214;SDS011;4642;51.364;6.788;2022-11-22T12:56:51;2.57;;;0.47;;
9214;SDS011;4642;51.364;6.788;2022-11-22T13:00:04;1.00;;;0.50;;
9214;SDS011;4642;51.364;6.788;2022-11-22T13:05:22;0.70;;;0.40;;
9214;SDS011;4642;51.364;6.788;2022-11-22T13:10:58;2.33;;;0.73;;
9214;SDS011;4642;51.364;6.788;2022-11-22T13:13:47;2.43;;;0.90;;
9214;SDS011;4642;51.364;6.788;2022-11-22T13:16:16;2.37;;;0.97;;
9214;SDS011;4642;51.364;6.788;2022-11-22T13:18:43;1.50;;;0.60;;
9214;SDS011;4642;51.364;6.788;2022-11-22T13:21:18;2.13;;;0.60;;
9214;SDS011;4642;51.364;6.788;2022-11-22T13:23:55;2.27;;;0.60;;
9214;SDS011;4642;51.364;6.788;2022-11-22T13:26:50;1.37;;;0.50;;
9214;SDS011;4642;51.364;6.788;2022-11-22T13:29:26;0.93;;;0.50;;
9214;SDS011;4642;51.364;6.788;2022-11-22T13:32:01;0.80;;;0.47;;
9214;SDS011;4642;51.364;6.788;2022-11-22T13:34:30;1.07;;;0.50;;
9214;SDS011;4642;51.364;6.788;2022-11-22T13:37:04;2.57;;;0.70;;
9214;SDS011;4642;51.364;6.788;2022-11-22T13:39:36;2.93;;;0.60;;
9214;SDS011;4642;51.364;6.788;2022-11-22T13:42:09;0.90;;;0.50;;
9214;SDS011;4642;51.364;6.788;2022-11-22T13:44:48;2.87;;;0.57;;
9214;SDS011;4642;51.364;6.788;2022-11-22T13:49:58;1.60;;;0.70;;
9214;SDS011;4642;51.364;6.788;2022-11-22T13:52:27;3.47;;;0.70;;
9214;SDS011;4642;51.364;6.788;2022-11-22T14:00:55;1.27;;;0.60;;
9214;SDS011;4642;51.364;6.788;2022-11-22T14:03:33;1.17;;;0.60;;
9214;SDS011;4642;51.364;6.788;2022-11-22T14:06:20;2.67;;;0.70;;
9214;SDS011;4642;51.364;6.788;2022-11-22T14:08:48;1.27;;;0.63;;
9214;SDS011;4642;51.364;6.788;2022-11-22T14:11:39;2.50;;;0.70;;
9214;SDS011;4642;51.364;6.788;2022-11-22T14:14:33;1.93;;;0.60;;
9214;SDS011;4642;51.364;6.788;2022-11-22T14:17:27;2.80;;;0.67;;
9214;SDS011;4642;51.364;6.788;2022-11-22T14:20:08;0.60;;;0.50;;
9214;SDS011;4642;51.364;6.788;2022-11-22T14:30:35;2.73;;;0.57;;
9214;SDS011;4642;51.364;6.788;2022-11-22T14:33:19;2.00;;;0.80;;
9214;SDS011;4642;51.364;6.788;2022-11-22T14:38:31;0.53;;;0.53;;
9214;SDS011;4642;51.364;6.788;2022-11-22T14:44:01;2.63;;;0.97;;
9214;SDS011;4642;51.364;6.788;2022-11-22T14:46:34;0.80;;;0.80;;
9214;SDS011;4642;51.364;6.788;2022-11-22T14:49:18;1.20;;;0.70;;
9214;SDS011;4642;51.364;6.788;2022-11-22T14:51:51;2.87;;;0.50;;
9214;SDS011;4642;51.364;6.788;2022-11-22T14:54:24;1.67;;;0.47;;
9214;SDS011;4642;51.364;6.788;2022-11-22T14:56:53;0.83;;;0.50;;
9214;SDS011;4642;51.364;6.788;2022-11-22T15:05:10;0.30;;;0.30;;
9214;SDS011;4642;51.364;6.788;2022-11-22T15:07:51;1.57;;;0.50;;
9214;SDS011;4642;51.364;6.788;2022-11-22T15:16:42;0.80;;;0.50;;
9214;SDS011;4642;51.364;6.788;2022-11-22T15:22:08;0.40;;;0.40;;
9214;SDS011;4642;51.364;6.788;2022-11-22T15:24:39;1.10;;;0.60;;
9214;SDS011;4642;51.364;6.788;2022-11-22T15:27:48;2.27;;;0.50;;
9214;SDS011;4642;51.364;6.788;2022-11-22T15:30:15;0.87;;;0.40;;
9214;SDS011;4642;51.364;6.788;2022-11-22T15:32:52;0.40;;;0.40;;
9214;SDS011;4642;51.364;6.788;2022-11-22T15:35:29;0.50;;;0.43;;
9214;SDS011;4642;51.364;6.788;2022-11-22T15:38:04;0.50;;;0.40;;
9214;SDS011;4642;51.364;6.788;2022-11-22T15:40:36;0.63;;;0.50;;
9214;SDS011;4642;51.364;6.788;2022-11-22T15:43:04;0.63;;;0.43;;
9214;SDS011;4642;51.364;6.788;2022-11-22T15:45:36;0.57;;;0.50;;
9214;SDS011;4642;51.364;6.788;2022-11-22T15:48:10;0.30;;;0.30;;
9214;SDS011;4642;51.364;6.788;2022-11-22T15:53:37;1.07;;;0.53;;
9214;SDS011;4642;51.364;6.788;2022-11-22T15:56:21;0.93;;;0.37;;
9214;SDS011;4642;51.364;6.788;2022-11-22T15:58:54;1.17;;;0.50;;
9214;SDS011;4642;51.364;6.788;2022-11-22T16:01:20;0.60;;;0.50;;
9214;SDS011;4642;51.364;6.788;2022-11-22T16:03:47;0.50;;;0.50;;
9214;SDS011;4642;51.364;6.788;2022-11-22T16:06:16;1.33;;;0.60;;
9214;SDS011;4642;51.364;6.788;2022-11-22T16:08:51;0.60;;;0.40;;
9214;SDS011;4642;51.364;6.788;2022-11-22T16:11:20;0.40;;;0.40;;
9214;SDS011;4642;51.364;6.788;2022-11-22T16:13:48;0.63;;;0.50;;
9214;SDS011;4642;51.364;6.788;2022-11-22T16:16:16;2.53;;;0.50;;
9214;SDS011;4642;51.364;6.788;2022-11-22T16:18:44;0.80;;;0.50;;
9214;SDS011;4642;51.364;6.788;2022-11-22T16:23:36;1.23;;;0.70;;
9214;SDS011;4642;51.364;6.788;2022-11-22T16:26:21;1.40;;;0.50;;
9214;SDS011;4642;51.364;6.788;2022-11-22T16:28:53;1.70;;;0.60;;
9214;SDS011;4642;51.364;6.788;2022-11-22T16:33:47;1.60;;;0.57;;
9214;SDS011;4642;51.364;6.788;2022-11-22T16:36:13;1.33;;;0.70;;
9214;SDS011;4642;51.364;6.788;2022-11-22T16:38:40;1.13;;;0.80;;
9214;SDS011;4642;51.364;6.788;2022-11-22T16:41:28;0.57;;;0.50;;
9214;SDS011;4642;51.364;6.788;2022-11-22T16:44:01;0.63;;;0.53;;
9214;SDS011;4642;51.364;6.788;2022-11-22T16:46:33;1.00;;;0.53;;
9214;SDS011;4642;51.364;6.788;2022-11-22T16:48:58;3.47;;;0.67;;
9214;SDS011;4642;51.364;6.788;2022-11-22T16:51:25;0.60;;;0.50;;
9214;SDS011;4642;51.364;6.788;2022-11-22T16:53:52;0.77;;;0.53;;
9214;SDS011;4642;51.364;6.788;2022-11-22T16:56:24;1.13;;;0.73;;
9214;SDS011;4642;51.364;6.788;2022-11-22T16:58:51;2.80;;;0.70;;
9214;SDS011;4642;51.364;6.788;2022-11-22T17:01:22;1.67;;;0.60;;
9214;SDS011;4642;51.364;6.788;2022-11-22T17:03:51;0.60;;;0.60;;
9214;SDS011;4642;51.364;6.788;2022-11-22T17:06:20;1.00;;;0.67;;
9214;SDS011;4642;51.364;6.788;2022-11-22T17:08:48;0.80;;;0.60;;
9214;SDS011;4642;51.364;6.788;2022-11-22T17:11:15;0.60;;;0.60;;
9214;SDS011;4642;51.364;6.788;2022-11-22T17:13:42;2.40;;;0.80;;
9214;SDS011;4642;51.364;6.788;2022-11-22T17:16:09;1.90;;;0.50;;
9214;SDS011;4642;51.364;6.788;2022-11-22T17:18:35;0.50;;;0.50;;
9214;SDS011;4642;51.364;6.788;2022-11-22T17:21:03;0.70;;;0.63;;
9214;SDS011;4642;51.364;6.788;2022-11-22T17:23:50;1.43;;;0.80;;